sensor_id;sensor_type;location;lat;lon;timestamp;P1;durP1;ratioP1;P2;durP2;ratioP2
74650;SDS011;63169;46.042;14.592;2023-03-01T00:00:18;20.85;;;11.23;;
74650;SDS011;63169;46.042;14.592;2023-03-01T00:02:43;24.63;;;11.50;;
74650;SDS011;63169;46.042;14.592;2023-03-01T00:05:09;24.48;;;10.77;;
74650;SDS011;63169;46.042;14.592;2023-03-01T00:07:34;26.40;;;11.80;;
74650;SDS011;63169;46.042;14.592;2023-03-01T00:09:59;23.98;;;12.25;;
74650;SDS011;63169;46.042;14.592;2023-03-01T00:12:25;20.15;;;10.77;;
74650;SDS011;63169;46.042;14.592;2023-03-01T00:14:50;23.92;;;11.80;;
74650;SDS011;63169;46.042;14.592;2023-03-01T00:17:15;25.80;;;12.20;;
74650;SDS011;63169;46.042;14.592;2023-03-01T00:19:41;23.42;;;10.63;;
74650;SDS011;63169;46.042;14.592;2023-03-01T00:22:07;21.17;;;11.02;;
74650;SDS011;63169;46.042;14.592;2023-03-01T00:24:32;23.50;;;11.50;;
74650;SDS011;63169;46.042;14.592;2023-03-01T00:26:58;26.15;;;12.00;;
74650;SDS011;63169;46.042;14.592;2023-03-01T00:29:23;23.60;;;11.93;;
74650;SDS011;63169;46.042;14.592;2023-03-01T00:31:49;24.52;;;12.13;;
74650;SDS011;63169;46.042;14.592;2023-03-01T00:34:15;26.30;;;11.88;;
74650;SDS011;63169;46.042;14.592;2023-03-01T00:36:40;25.02;;;10.93;;
74650;SDS011;63169;46.042;14.592;2023-03-01T00:39:07;19.52;;;10.90;;
74650;SDS011;63169;46.042;14.592;2023-03-01T00:41:36;23.52;;;11.02;;
74650;SDS011;63169;46.042;14.592;2023-03-01T00:44:01;21.13;;;11.65;;
74650;SDS011;63169;46.042;14.592;2023-03-01T00:46:27;25.27;;;11.95;;
74650;SDS011;63169;46.042;14.592;2023-03-01T00:48:53;27.10;;;11.90;;
74650;SDS011;63169;46.042;14.592;2023-03-01T00:51:20;22.20;;;11.68;;
74650;SDS011;63169;46.042;14.592;2023-03-01T00:53:51;24.75;;;11.40;;
74650;SDS011;63169;46.042;14.592;2023-03-01T00:56:17;23.85;;;11.75;;
74650;SDS011;63169;46.042;14.592;2023-03-01T00:58:43;24.10;;;11.77;;
74650;SDS011;63169;46.042;14.592;2023-03-01T01:01:10;21.58;;;11.52;;
74650;SDS011;63169;46.042;14.592;2023-03-01T01:06:12;22.33;;;10.50;;
74650;SDS011;63169;46.042;14.592;2023-03-01T01:08:42;24.25;;;10.98;;
74650;SDS011;63169;46.042;14.592;2023-03-01T01:11:08;22.70;;;11.75;;
74650;SDS011;63169;46.042;14.592;2023-03-01T01:13:35;25.05;;;11.32;;
74650;SDS011;63169;46.042;14.592;2023-03-01T01:16:01;25.80;;;12.85;;
74650;SDS011;63169;46.042;14.592;2023-03-01T01:18:27;26.48;;;11.90;;
74650;SDS011;63169;46.042;14.592;2023-03-01T01:20:52;23.27;;;11.73;;
74650;SDS011;63169;46.042;14.592;2023-03-01T01:23:18;21.58;;;11.25;;
74650;SDS011;63169;46.042;14.592;2023-03-01T01:25:43;26.92;;;13.30;;
74650;SDS011;63169;46.042;14.592;2023-03-01T01:28:08;25.00;;;12.98;;
74650;SDS011;63169;46.042;14.592;2023-03-01T01:30:34;27.10;;;12.45;;
74650;SDS011;63169;46.042;14.592;2023-03-01T01:32:59;27.45;;;12.50;;
74650;SDS011;63169;46.042;14.592;2023-03-01T01:35:24;25.35;;;11.98;;
74650;SDS011;63169;46.042;14.592;2023-03-01T01:37:50;27.17;;;12.52;;
74650;SDS011;63169;46.042;14.592;2023-03-01T01:40:15;26.45;;;13.25;;
74650;SDS011;63169;46.042;14.592;2023-03-01T01:42:40;25.40;;;13.18;;
74650;SDS011;63169;46.042;14.592;2023-03-01T01:50:25;27.30;;;12.73;;
74650;SDS011;63169;46.042;14.592;2023-03-01T01:52:50;23.02;;;12.30;;
74650;SDS011;63169;46.042;14.592;2023-03-01T01:55:18;27.98;;;13.25;;
74650;SDS011;63169;46.042;14.592;2023-03-01T01:57:55;24.83;;;12.93;;
74650;SDS011;63169;46.042;14.592;2023-03-01T02:00:23;27.35;;;12.75;;
74650;SDS011;63169;46.042;14.592;2023-03-01T02:02:54;28.50;;;11.77;;
74650;SDS011;63169;46.042;14.592;2023-03-01T02:08:06;27.85;;;12.80;;
74650;SDS011;63169;46.042;14.592;2023-03-01T02:10:32;27.40;;;12.65;;
74650;SDS011;63169;46.042;14.592;2023-03-01T02:12:58;26.88;;;13.15;;
74650;SDS011;63169;46.042;14.592;2023-03-01T02:15:25;24.98;;;11.10;;
74650;SDS011;63169;46.042;14.592;2023-03-01T02:17:51;25.92;;;11.68;;
74650;SDS011;63169;46.042;14.592;2023-03-01T02:23:02;24.95;;;11.50;;
74650;SDS011;63169;46.042;14.592;2023-03-01T02:30:40;26.10;;;12.50;;
74650;SDS011;63169;46.042;14.592;2023-03-01T02:33:26;25.23;;;12.13;;
74650;SDS011;63169;46.042;14.592;2023-03-01T02:35:52;21.05;;;11.00;;
74650;SDS011;63169;46.042;14.592;2023-03-01T02:38:19;28.08;;;12.43;;
74650;SDS011;63169;46.042;14.592;2023-03-01T02:40:46;23.67;;;12.63;;
74650;SDS011;63169;46.042;14.592;2023-03-01T02:43:13;24.70;;;12.52;;
74650;SDS011;63169;46.042;14.592;2023-03-01T02:45:43;24.70;;;12.40;;
74650;SDS011;63169;46.042;14.592;2023-03-01T02:48:13;23.15;;;12.10;;
74650;SDS011;63169;46.042;14.592;2023-03-01T02:56:52;25.35;;;12.73;;
74650;SDS011;63169;46.042;14.592;2023-03-01T02:59:18;25.40;;;11.27;;
74650;SDS011;63169;46.042;14.592;2023-03-01T03:01:45;24.83;;;11.57;;
74650;SDS011;63169;46.042;14.592;2023-03-01T03:04:13;22.80;;;10.90;;
74650;SDS011;63169;46.042;14.592;2023-03-01T03:06:42;27.00;;;11.82;;
74650;SDS011;63169;46.042;14.592;2023-03-01T03:09:11;23.48;;;11.27;;
74650;SDS011;63169;46.042;14.592;2023-03-01T03:11:37;23.73;;;10.60;;
74650;SDS011;63169;46.042;14.592;2023-03-01T03:14:07;24.63;;;11.65;;
74650;SDS011;63169;46.042;14.592;2023-03-01T03:16:44;24.42;;;11.48;;
74650;SDS011;63169;46.042;14.592;2023-03-01T03:19:10;25.63;;;12.70;;
74650;SDS011;63169;46.042;14.592;2023-03-01T03:21:36;28.45;;;14.88;;
74650;SDS011;63169;46.042;14.592;2023-03-01T03:24:02;24.63;;;12.18;;
74650;SDS011;63169;46.042;14.592;2023-03-01T03:26:27;30.52;;;13.10;;
74650;SDS011;63169;46.042;14.592;2023-03-01T03:28:53;29.58;;;13.75;;
74650;SDS011;63169;46.042;14.592;2023-03-01T03:31:18;26.52;;;12.57;;
74650;SDS011;63169;46.042;14.592;2023-03-01T03:33:44;27.65;;;11.95;;
74650;SDS011;63169;46.042;14.592;2023-03-01T03:36:09;26.20;;;13.40;;
74650;SDS011;63169;46.042;14.592;2023-03-01T03:38:39;26.33;;;12.98;;
74650;SDS011;63169;46.042;14.592;2023-03-01T03:41:06;25.88;;;12.13;;
74650;SDS011;63169;46.042;14.592;2023-03-01T03:43:33;29.17;;;14.32;;
74650;SDS011;63169;46.042;14.592;2023-03-01T03:46:01;25.13;;;11.93;;
74650;SDS011;63169;46.042;14.592;2023-03-01T03:48:31;28.27;;;12.68;;
74650;SDS011;63169;46.042;14.592;2023-03-01T03:50:58;30.35;;;13.38;;
74650;SDS011;63169;46.042;14.592;2023-03-01T03:53:24;26.52;;;12.45;;
74650;SDS011;63169;46.042;14.592;2023-03-01T03:55:50;25.17;;;12.05;;
74650;SDS011;63169;46.042;14.592;2023-03-01T03:58:16;21.63;;;12.18;;
74650;SDS011;63169;46.042;14.592;2023-03-01T04:00:44;31.23;;;13.30;;
74650;SDS011;63169;46.042;14.592;2023-03-01T04:03:11;29.33;;;13.20;;
74650;SDS011;63169;46.042;14.592;2023-03-01T04:05:37;27.85;;;13.95;;
74650;SDS011;63169;46.042;14.592;2023-03-01T04:08:05;27.85;;;13.55;;
74650;SDS011;63169;46.042;14.592;2023-03-01T04:10:37;28.38;;;11.65;;
74650;SDS011;63169;46.042;14.592;2023-03-01T04:13:04;26.58;;;13.40;;
74650;SDS011;63169;46.042;14.592;2023-03-01T04:15:30;31.40;;;13.73;;
74650;SDS011;63169;46.042;14.592;2023-03-01T04:17:57;26.65;;;11.77;;
74650;SDS011;63169;46.042;14.592;2023-03-01T04:20:25;27.05;;;13.73;;
74650;SDS011;63169;46.042;14.592;2023-03-01T04:22:58;28.83;;;12.20;;
74650;SDS011;63169;46.042;14.592;2023-03-01T04:25:40;29.02;;;14.70;;
74650;SDS011;63169;46.042;14.592;2023-03-01T04:28:07;26.58;;;12.50;;
74650;SDS011;63169;46.042;14.592;2023-03-01T04:30:34;27.45;;;12.75;;
74650;SDS011;63169;46.042;14.592;2023-03-01T04:35:35;26.40;;;11.63;;
74650;SDS011;63169;46.042;14.592;2023-03-01T04:38:01;27.35;;;13.32;;
74650;SDS011;63169;46.042;14.592;2023-03-01T04:40:27;26.10;;;11.95;;
74650;SDS011;63169;46.042;14.592;2023-03-01T04:42:52;28.00;;;13.52;;
74650;SDS011;63169;46.042;14.592;2023-03-01T04:45:17;28.05;;;13.68;;
74650;SDS011;63169;46.042;14.592;2023-03-01T04:47:43;28.92;;;12.60;;
74650;SDS011;63169;46.042;14.592;2023-03-01T04:50:11;33.60;;;13.48;;
74650;SDS011;63169;46.042;14.592;2023-03-01T04:52:38;26.23;;;13.02;;
74650;SDS011;63169;46.042;14.592;2023-03-01T04:55:04;30.15;;;12.73;;
74650;SDS011;63169;46.042;14.592;2023-03-01T04:57:30;29.48;;;14.35;;
74650;SDS011;63169;46.042;14.592;2023-03-01T04:59:56;27.10;;;12.95;;
74650;SDS011;63169;46.042;14.592;2023-03-01T05:02:21;25.90;;;14.20;;
74650;SDS011;63169;46.042;14.592;2023-03-01T05:04:46;26.52;;;13.00;;
74650;SDS011;63169;46.042;14.592;2023-03-01T05:07:12;26.13;;;12.95;;
74650;SDS011;63169;46.042;14.592;2023-03-01T05:09:38;26.42;;;13.45;;
74650;SDS011;63169;46.042;14.592;2023-03-01T05:12:03;30.60;;;13.57;;
74650;SDS011;63169;46.042;14.592;2023-03-01T05:14:29;30.13;;;13.85;;
74650;SDS011;63169;46.042;14.592;2023-03-01T05:16:54;31.77;;;13.95;;
74650;SDS011;63169;46.042;14.592;2023-03-01T05:19:20;28.27;;;13.98;;
74650;SDS011;63169;46.042;14.592;2023-03-01T05:21:47;27.80;;;13.52;;
74650;SDS011;63169;46.042;14.592;2023-03-01T05:24:29;26.30;;;12.75;;
74650;SDS011;63169;46.042;14.592;2023-03-01T05:29:21;25.10;;;11.57;;
74650;SDS011;63169;46.042;14.592;2023-03-01T05:31:53;24.58;;;11.68;;
74650;SDS011;63169;46.042;14.592;2023-03-01T05:34:26;28.55;;;13.00;;
74650;SDS011;63169;46.042;14.592;2023-03-01T05:36:53;27.38;;;12.98;;
74650;SDS011;63169;46.042;14.592;2023-03-01T05:39:22;31.40;;;13.60;;
74650;SDS011;63169;46.042;14.592;2023-03-01T05:41:52;26.33;;;12.73;;
74650;SDS011;63169;46.042;14.592;2023-03-01T05:44:18;28.80;;;13.77;;
74650;SDS011;63169;46.042;14.592;2023-03-01T05:46:44;27.00;;;12.93;;
74650;SDS011;63169;46.042;14.592;2023-03-01T05:49:10;24.92;;;12.15;;
74650;SDS011;63169;46.042;14.592;2023-03-01T05:51:35;31.02;;;14.50;;
74650;SDS011;63169;46.042;14.592;2023-03-01T05:54:01;24.20;;;12.35;;
74650;SDS011;63169;46.042;14.592;2023-03-01T05:56:26;30.40;;;14.93;;
74650;SDS011;63169;46.042;14.592;2023-03-01T05:58:51;29.95;;;14.23;;
74650;SDS011;63169;46.042;14.592;2023-03-01T06:01:17;49.78;;;22.58;;
74650;SDS011;63169;46.042;14.592;2023-03-01T06:03:42;36.15;;;19.23;;
74650;SDS011;63169;46.042;14.592;2023-03-01T06:06:08;31.30;;;16.23;;
74650;SDS011;63169;46.042;14.592;2023-03-01T06:08:33;31.10;;;14.40;;
74650;SDS011;63169;46.042;14.592;2023-03-01T06:10:58;28.98;;;13.70;;
74650;SDS011;63169;46.042;14.592;2023-03-01T06:13:24;28.85;;;14.27;;
74650;SDS011;63169;46.042;14.592;2023-03-01T06:15:49;26.98;;;12.70;;
74650;SDS011;63169;46.042;14.592;2023-03-01T06:18:15;27.50;;;12.75;;
74650;SDS011;63169;46.042;14.592;2023-03-01T06:20:40;30.60;;;12.93;;
74650;SDS011;63169;46.042;14.592;2023-03-01T06:23:06;25.42;;;13.18;;
74650;SDS011;63169;46.042;14.592;2023-03-01T06:25:31;29.30;;;13.70;;
74650;SDS011;63169;46.042;14.592;2023-03-01T06:27:57;27.25;;;13.57;;
74650;SDS011;63169;46.042;14.592;2023-03-01T06:30:23;27.25;;;12.98;;
74650;SDS011;63169;46.042;14.592;2023-03-01T06:32:50;29.35;;;12.95;;
74650;SDS011;63169;46.042;14.592;2023-03-01T06:35:16;31.70;;;14.50;;
74650;SDS011;63169;46.042;14.592;2023-03-01T06:37:43;29.25;;;14.27;;
74650;SDS011;63169;46.042;14.592;2023-03-01T06:40:09;31.42;;;16.30;;
74650;SDS011;63169;46.042;14.592;2023-03-01T06:42:36;28.05;;;14.93;;
74650;SDS011;63169;46.042;14.592;2023-03-01T06:45:03;34.10;;;15.40;;
74650;SDS011;63169;46.042;14.592;2023-03-01T06:47:29;34.65;;;14.52;;
74650;SDS011;63169;46.042;14.592;2023-03-01T06:49:54;27.35;;;14.02;;
74650;SDS011;63169;46.042;14.592;2023-03-01T06:52:20;41.97;;;18.88;;
74650;SDS011;63169;46.042;14.592;2023-03-01T06:54:45;44.13;;;21.38;;
74650;SDS011;63169;46.042;14.592;2023-03-01T06:57:10;37.72;;;16.55;;
74650;SDS011;63169;46.042;14.592;2023-03-01T06:59:36;44.25;;;16.85;;
74650;SDS011;63169;46.042;14.592;2023-03-01T07:02:01;33.25;;;14.88;;
74650;SDS011;63169;46.042;14.592;2023-03-01T07:04:26;29.40;;;13.98;;
74650;SDS011;63169;46.042;14.592;2023-03-01T07:06:53;37.33;;;15.50;;
74650;SDS011;63169;46.042;14.592;2023-03-01T07:09:20;40.00;;;18.08;;
74650;SDS011;63169;46.042;14.592;2023-03-01T07:11:47;34.45;;;17.60;;
74650;SDS011;63169;46.042;14.592;2023-03-01T07:14:12;30.45;;;14.45;;
74650;SDS011;63169;46.042;14.592;2023-03-01T07:16:38;28.48;;;15.00;;
74650;SDS011;63169;46.042;14.592;2023-03-01T07:19:03;30.65;;;15.20;;
74650;SDS011;63169;46.042;14.592;2023-03-01T07:21:30;25.65;;;13.73;;
74650;SDS011;63169;46.042;14.592;2023-03-01T07:23:55;28.75;;;14.02;;
74650;SDS011;63169;46.042;14.592;2023-03-01T07:26:21;31.27;;;14.98;;
74650;SDS011;63169;46.042;14.592;2023-03-01T07:28:46;32.45;;;18.63;;
74650;SDS011;63169;46.042;14.592;2023-03-01T07:31:13;34.75;;;16.40;;
74650;SDS011;63169;46.042;14.592;2023-03-01T07:33:39;30.40;;;14.25;;
74650;SDS011;63169;46.042;14.592;2023-03-01T07:36:04;32.90;;;20.80;;
74650;SDS011;63169;46.042;14.592;2023-03-01T07:38:30;26.50;;;15.00;;
74650;SDS011;63169;46.042;14.592;2023-03-01T07:40:59;29.35;;;15.27;;
74650;SDS011;63169;46.042;14.592;2023-03-01T07:43:27;30.60;;;14.32;;
74650;SDS011;63169;46.042;14.592;2023-03-01T07:45:53;50.20;;;20.08;;
74650;SDS011;63169;46.042;14.592;2023-03-01T07:48:18;50.08;;;19.55;;
74650;SDS011;63169;46.042;14.592;2023-03-01T07:50:44;48.72;;;19.00;;
74650;SDS011;63169;46.042;14.592;2023-03-01T07:53:09;25.98;;;12.85;;
74650;SDS011;63169;46.042;14.592;2023-03-01T07:55:35;32.60;;;15.15;;
74650;SDS011;63169;46.042;14.592;2023-03-01T07:58:01;39.17;;;15.55;;
74650;SDS011;63169;46.042;14.592;2023-03-01T08:00:26;49.45;;;23.70;;
74650;SDS011;63169;46.042;14.592;2023-03-01T08:02:51;40.53;;;19.48;;
74650;SDS011;63169;46.042;14.592;2023-03-01T08:05:17;33.60;;;16.63;;
74650;SDS011;63169;46.042;14.592;2023-03-01T08:07:42;79.65;;;37.85;;
74650;SDS011;63169;46.042;14.592;2023-03-01T08:10:08;27.08;;;12.52;;
74650;SDS011;63169;46.042;14.592;2023-03-01T08:12:34;22.27;;;10.90;;
74650;SDS011;63169;46.042;14.592;2023-03-01T08:14:59;24.17;;;12.43;;
74650;SDS011;63169;46.042;14.592;2023-03-01T08:17:25;20.75;;;11.50;;
74650;SDS011;63169;46.042;14.592;2023-03-01T08:19:50;23.63;;;10.18;;
74650;SDS011;63169;46.042;14.592;2023-03-01T08:22:16;20.33;;;10.15;;
74650;SDS011;63169;46.042;14.592;2023-03-01T08:24:47;21.23;;;9.63;;
74650;SDS011;63169;46.042;14.592;2023-03-01T08:27:14;25.48;;;10.55;;
74650;SDS011;63169;46.042;14.592;2023-03-01T08:29:40;21.55;;;10.00;;
74650;SDS011;63169;46.042;14.592;2023-03-01T08:32:05;23.08;;;11.82;;
74650;SDS011;63169;46.042;14.592;2023-03-01T08:34:31;25.38;;;12.20;;
74650;SDS011;63169;46.042;14.592;2023-03-01T08:36:56;21.70;;;10.52;;
74650;SDS011;63169;46.042;14.592;2023-03-01T08:39:22;23.67;;;11.80;;
74650;SDS011;63169;46.042;14.592;2023-03-01T08:41:47;23.70;;;12.35;;
74650;SDS011;63169;46.042;14.592;2023-03-01T08:44:13;26.27;;;14.55;;
74650;SDS011;63169;46.042;14.592;2023-03-01T08:46:41;22.50;;;10.95;;
74650;SDS011;63169;46.042;14.592;2023-03-01T08:49:07;28.35;;;14.57;;
74650;SDS011;63169;46.042;14.592;2023-03-01T08:51:34;34.72;;;18.10;;
74650;SDS011;63169;46.042;14.592;2023-03-01T08:54:02;72.43;;;35.88;;
74650;SDS011;63169;46.042;14.592;2023-03-01T08:56:29;29.98;;;14.82;;
74650;SDS011;63169;46.042;14.592;2023-03-01T08:58:54;32.58;;;18.63;;
74650;SDS011;63169;46.042;14.592;2023-03-01T09:01:19;46.22;;;19.67;;
74650;SDS011;63169;46.042;14.592;2023-03-01T09:03:45;43.40;;;18.98;;
74650;SDS011;63169;46.042;14.592;2023-03-01T09:06:11;18.60;;;10.52;;
74650;SDS011;63169;46.042;14.592;2023-03-01T09:08:37;20.80;;;11.48;;
74650;SDS011;63169;46.042;14.592;2023-03-01T09:13:30;20.25;;;9.30;;
74650;SDS011;63169;46.042;14.592;2023-03-01T09:15:58;21.77;;;11.65;;
74650;SDS011;63169;46.042;14.592;2023-03-01T09:18:24;26.23;;;14.07;;
74650;SDS011;63169;46.042;14.592;2023-03-01T09:20:49;27.75;;;12.30;;
74650;SDS011;63169;46.042;14.592;2023-03-01T09:23:15;24.40;;;10.80;;
74650;SDS011;63169;46.042;14.592;2023-03-01T09:25:40;28.70;;;12.90;;
74650;SDS011;63169;46.042;14.592;2023-03-01T09:28:06;24.25;;;10.98;;
74650;SDS011;63169;46.042;14.592;2023-03-01T09:30:31;28.00;;;13.45;;
74650;SDS011;63169;46.042;14.592;2023-03-01T09:32:57;50.70;;;22.55;;
74650;SDS011;63169;46.042;14.592;2023-03-01T09:35:22;36.30;;;18.02;;
74650;SDS011;63169;46.042;14.592;2023-03-01T09:37:48;20.67;;;9.70;;
74650;SDS011;63169;46.042;14.592;2023-03-01T09:40:21;18.23;;;9.30;;
74650;SDS011;63169;46.042;14.592;2023-03-01T09:42:51;23.42;;;9.32;;
74650;SDS011;63169;46.042;14.592;2023-03-01T09:45:22;20.58;;;10.63;;
74650;SDS011;63169;46.042;14.592;2023-03-01T09:47:51;17.60;;;8.40;;
74650;SDS011;63169;46.042;14.592;2023-03-01T09:50:18;17.60;;;9.57;;
74650;SDS011;63169;46.042;14.592;2023-03-01T09:52:50;19.20;;;8.20;;
74650;SDS011;63169;46.042;14.592;2023-03-01T09:55:26;17.42;;;8.50;;
74650;SDS011;63169;46.042;14.592;2023-03-01T09:58:00;19.75;;;8.80;;
74650;SDS011;63169;46.042;14.592;2023-03-01T10:05:59;22.55;;;9.88;;
74650;SDS011;63169;46.042;14.592;2023-03-01T10:11:15;18.90;;;9.65;;
74650;SDS011;63169;46.042;14.592;2023-03-01T10:14:01;17.75;;;8.85;;
74650;SDS011;63169;46.042;14.592;2023-03-01T10:19:18;73.90;;;26.92;;
74650;SDS011;63169;46.042;14.592;2023-03-01T10:22:10;34.55;;;15.13;;
74650;SDS011;63169;46.042;14.592;2023-03-01T10:24:46;55.15;;;19.42;;
74650;SDS011;63169;46.042;14.592;2023-03-01T10:27:22;82.60;;;27.45;;
74650;SDS011;63169;46.042;14.592;2023-03-01T10:32:27;22.67;;;11.00;;
74650;SDS011;63169;46.042;14.592;2023-03-01T10:34:53;22.13;;;10.20;;
74650;SDS011;63169;46.042;14.592;2023-03-01T10:37:19;26.98;;;12.60;;
74650;SDS011;63169;46.042;14.592;2023-03-01T10:42:38;24.02;;;10.48;;
74650;SDS011;63169;46.042;14.592;2023-03-01T10:50:49;20.90;;;9.65;;
74650;SDS011;63169;46.042;14.592;2023-03-01T10:53:21;17.02;;;8.50;;
74650;SDS011;63169;46.042;14.592;2023-03-01T10:55:57;18.08;;;9.18;;
74650;SDS011;63169;46.042;14.592;2023-03-01T10:58:26;17.70;;;8.68;;
74650;SDS011;63169;46.042;14.592;2023-03-01T11:00:59;17.15;;;8.80;;
74650;SDS011;63169;46.042;14.592;2023-03-01T11:03:34;22.88;;;11.98;;
74650;SDS011;63169;46.042;14.592;2023-03-01T11:08:35;27.38;;;12.68;;
74650;SDS011;63169;46.042;14.592;2023-03-01T11:11:04;21.83;;;10.43;;
74650;SDS011;63169;46.042;14.592;2023-03-01T11:13:31;20.15;;;9.88;;
74650;SDS011;63169;46.042;14.592;2023-03-01T11:16:07;18.45;;;9.35;;
74650;SDS011;63169;46.042;14.592;2023-03-01T11:18:35;19.65;;;8.85;;
74650;SDS011;63169;46.042;14.592;2023-03-01T11:21:00;19.83;;;9.20;;
74650;SDS011;63169;46.042;14.592;2023-03-01T11:23:27;44.15;;;18.35;;
74650;SDS011;63169;46.042;14.592;2023-03-01T11:25:55;27.30;;;10.40;;
74650;SDS011;63169;46.042;14.592;2023-03-01T11:28:21;21.92;;;10.68;;
74650;SDS011;63169;46.042;14.592;2023-03-01T11:30:58;19.20;;;9.93;;
74650;SDS011;63169;46.042;14.592;2023-03-01T11:34:03;18.83;;;8.85;;
74650;SDS011;63169;46.042;14.592;2023-03-01T11:38:49;14.18;;;7.05;;
74650;SDS011;63169;46.042;14.592;2023-03-01T11:41:15;22.42;;;10.75;;
74650;SDS011;63169;46.042;14.592;2023-03-01T11:52:03;21.67;;;10.55;;
74650;SDS011;63169;46.042;14.592;2023-03-01T11:54:49;15.73;;;8.02;;
74650;SDS011;63169;46.042;14.592;2023-03-01T12:08:40;18.25;;;9.40;;
74650;SDS011;63169;46.042;14.592;2023-03-01T12:25:41;19.10;;;8.82;;
74650;SDS011;63169;46.042;14.592;2023-03-01T12:28:21;16.10;;;7.97;;
74650;SDS011;63169;46.042;14.592;2023-03-01T12:36:50;19.17;;;7.15;;
74650;SDS011;63169;46.042;14.592;2023-03-01T12:45:47;15.40;;;7.38;;
74650;SDS011;63169;46.042;14.592;2023-03-01T12:51:02;15.40;;;7.18;;
74650;SDS011;63169;46.042;14.592;2023-03-01T12:53:32;15.48;;;7.43;;
74650;SDS011;63169;46.042;14.592;2023-03-01T12:56:00;13.70;;;6.72;;
74650;SDS011;63169;46.042;14.592;2023-03-01T13:08:56;15.57;;;6.82;;
74650;SDS011;63169;46.042;14.592;2023-03-01T13:11:25;17.10;;;6.80;;
74650;SDS011;63169;46.042;14.592;2023-03-01T13:13:51;16.77;;;8.90;;
74650;SDS011;63169;46.042;14.592;2023-03-01T13:21:43;16.15;;;6.60;;
74650;SDS011;63169;46.042;14.592;2023-03-01T13:32:43;15.27;;;8.25;;
74650;SDS011;63169;46.042;14.592;2023-03-01T13:37:39;14.77;;;6.93;;
74650;SDS011;63169;46.042;14.592;2023-03-01T13:40:56;15.07;;;7.05;;
74650;SDS011;63169;46.042;14.592;2023-03-01T13:42:51;16.30;;;7.32;;
74650;SDS011;63169;46.042;14.592;2023-03-01T13:47:55;15.52;;;7.20;;
74650;SDS011;63169;46.042;14.592;2023-03-01T13:50:24;17.08;;;8.77;;
74650;SDS011;63169;46.042;14.592;2023-03-01T13:53:01;14.57;;;7.45;;
74650;SDS011;63169;46.042;14.592;2023-03-01T13:55:40;16.15;;;6.93;;
74650;SDS011;63169;46.042;14.592;2023-03-01T13:58:15;15.43;;;6.75;;
74650;SDS011;63169;46.042;14.592;2023-03-01T14:00:54;13.75;;;7.15;;
74650;SDS011;63169;46.042;14.592;2023-03-01T14:03:21;11.82;;;5.50;;
74650;SDS011;63169;46.042;14.592;2023-03-01T14:08:25;12.55;;;7.25;;
74650;SDS011;63169;46.042;14.592;2023-03-01T14:13:30;14.52;;;6.72;;
74650;SDS011;63169;46.042;14.592;2023-03-01T14:19:03;18.80;;;7.78;;
74650;SDS011;63169;46.042;14.592;2023-03-01T14:21:41;16.73;;;5.97;;
74650;SDS011;63169;46.042;14.592;2023-03-01T14:24:15;12.63;;;5.18;;
74650;SDS011;63169;46.042;14.592;2023-03-01T14:26:42;13.75;;;6.15;;
74650;SDS011;63169;46.042;14.592;2023-03-01T14:29:22;12.73;;;5.28;;
74650;SDS011;63169;46.042;14.592;2023-03-01T14:32:08;10.57;;;4.78;;
74650;SDS011;63169;46.042;14.592;2023-03-01T14:34:54;10.38;;;5.03;;
74650;SDS011;63169;46.042;14.592;2023-03-01T14:37:33;11.18;;;5.18;;
74650;SDS011;63169;46.042;14.592;2023-03-01T14:40:00;18.42;;;7.70;;
74650;SDS011;63169;46.042;14.592;2023-03-01T14:42:29;16.83;;;8.48;;
74650;SDS011;63169;46.042;14.592;2023-03-01T14:44:58;18.73;;;9.15;;
74650;SDS011;63169;46.042;14.592;2023-03-01T14:47:30;17.33;;;7.78;;
74650;SDS011;63169;46.042;14.592;2023-03-01T14:49:58;14.68;;;5.72;;
74650;SDS011;63169;46.042;14.592;2023-03-01T14:52:28;11.18;;;6.70;;
74650;SDS011;63169;46.042;14.592;2023-03-01T14:54:59;12.98;;;7.65;;
74650;SDS011;63169;46.042;14.592;2023-03-01T14:57:25;12.00;;;5.85;;
74650;SDS011;63169;46.042;14.592;2023-03-01T14:59:52;12.18;;;3.97;;
74650;SDS011;63169;46.042;14.592;2023-03-01T15:02:20;13.55;;;5.53;;
74650;SDS011;63169;46.042;14.592;2023-03-01T15:04:49;13.13;;;6.30;;
74650;SDS011;63169;46.042;14.592;2023-03-01T15:07:21;10.20;;;4.55;;
74650;SDS011;63169;46.042;14.592;2023-03-01T15:09:49;9.93;;;5.45;;
74650;SDS011;63169;46.042;14.592;2023-03-01T15:14:52;11.43;;;5.70;;
74650;SDS011;63169;46.042;14.592;2023-03-01T15:20:00;11.30;;;5.80;;
74650;SDS011;63169;46.042;14.592;2023-03-01T15:22:29;11.95;;;5.10;;
74650;SDS011;63169;46.042;14.592;2023-03-01T15:24:54;12.30;;;5.63;;
74650;SDS011;63169;46.042;14.592;2023-03-01T15:27:22;13.38;;;6.88;;
74650;SDS011;63169;46.042;14.592;2023-03-01T15:29:50;11.80;;;5.30;;
74650;SDS011;63169;46.042;14.592;2023-03-01T15:32:34;27.13;;;10.82;;
74650;SDS011;63169;46.042;14.592;2023-03-01T15:35:32;8.82;;;4.50;;
74650;SDS011;63169;46.042;14.592;2023-03-01T15:40:58;11.20;;;4.72;;
74650;SDS011;63169;46.042;14.592;2023-03-01T15:43:44;9.60;;;4.32;;
74650;SDS011;63169;46.042;14.592;2023-03-01T15:48:57;7.95;;;4.15;;
74650;SDS011;63169;46.042;14.592;2023-03-01T15:51:28;9.60;;;4.40;;
74650;SDS011;63169;46.042;14.592;2023-03-01T15:54:12;10.85;;;4.93;;
74650;SDS011;63169;46.042;14.592;2023-03-01T15:56:42;9.60;;;4.80;;
74650;SDS011;63169;46.042;14.592;2023-03-01T15:59:09;10.15;;;5.00;;
74650;SDS011;63169;46.042;14.592;2023-03-01T16:01:38;9.98;;;4.00;;
74650;SDS011;63169;46.042;14.592;2023-03-01T16:04:03;9.93;;;5.05;;
74650;SDS011;63169;46.042;14.592;2023-03-01T16:06:29;8.57;;;4.45;;
74650;SDS011;63169;46.042;14.592;2023-03-01T16:08:54;7.88;;;3.95;;
74650;SDS011;63169;46.042;14.592;2023-03-01T16:11:20;10.10;;;5.00;;
74650;SDS011;63169;46.042;14.592;2023-03-01T16:13:46;10.32;;;4.88;;
74650;SDS011;63169;46.042;14.592;2023-03-01T16:16:11;7.97;;;3.75;;
74650;SDS011;63169;46.042;14.592;2023-03-01T16:18:40;13.07;;;4.60;;
74650;SDS011;63169;46.042;14.592;2023-03-01T16:21:06;8.82;;;4.30;;
74650;SDS011;63169;46.042;14.592;2023-03-01T16:23:31;9.18;;;4.63;;
74650;SDS011;63169;46.042;14.592;2023-03-01T16:26:00;9.98;;;4.93;;
74650;SDS011;63169;46.042;14.592;2023-03-01T16:28:25;9.95;;;4.93;;
74650;SDS011;63169;46.042;14.592;2023-03-01T16:30:51;9.65;;;5.30;;
74650;SDS011;63169;46.042;14.592;2023-03-01T16:33:16;10.48;;;4.95;;
74650;SDS011;63169;46.042;14.592;2023-03-01T16:35:42;8.82;;;4.80;;
74650;SDS011;63169;46.042;14.592;2023-03-01T16:38:08;10.73;;;4.25;;
74650;SDS011;63169;46.042;14.592;2023-03-01T16:40:34;7.40;;;3.97;;
74650;SDS011;63169;46.042;14.592;2023-03-01T16:42:59;7.97;;;4.38;;
74650;SDS011;63169;46.042;14.592;2023-03-01T16:45:33;8.57;;;4.28;;
74650;SDS011;63169;46.042;14.592;2023-03-01T16:48:04;8.98;;;4.47;;
74650;SDS011;63169;46.042;14.592;2023-03-01T16:50:30;11.30;;;5.72;;
74650;SDS011;63169;46.042;14.592;2023-03-01T16:52:55;9.20;;;5.60;;
74650;SDS011;63169;46.042;14.592;2023-03-01T16:55:20;10.13;;;4.53;;